CheckWX is a tool to help pilots better visualize weather data.  It is not intended as a substitute for an official pre-flight weather briefing.

05:31:16 UTC

KGUC METAR
Gunnison-Crested Butte Regional Airport
Gunnison, Colorado, USA
Current

35 mins ago

KGUC 240456Z AUTO 03003KT 10SM CLR M13/M18 A3020 RMK AO2 SLP311 T11281183 FZRANO
Observed
Feb-24 @ 04:56 UTC
Wind
  • 030° at 3 KTS
Visibility
10 SM
Flight Rules
VFR
Cloud Levels
  • Clear skies
Temperature
-13°C / 9°F
Dewpoint
-18°C / -0°F
Humidity
66%
Altimeter
30.2" Hg
Pressure
1031.1 hPa
Previous

2 hours ago

KGUC 240356Z AUTO 36003KT 10SM FEW055 M12/M18 A3016 RMK AO2 SLP299 T11221178 FZRANO
Observed
Feb-24 @ 03:56 UTC
Wind
  • 360° at 3 KTS
Visibility
10 SM
Flight Rules
VFR
Cloud Levels
  • Few at 5,500' AGL
Temperature
-12°C / 10°F
Dewpoint
-18°C / -0°F
Humidity
61%
Altimeter
30.16" Hg
Pressure
1029.9 hPa
Previous

3 hours ago

KGUC 240256Z AUTO 26003KT 10SM FEW060 M11/M15 A3015 RMK AO2 SLP294 T11061150 51024 FZRANO
Observed
Feb-24 @ 02:56 UTC
Wind
  • 260° at 3 KTS
Visibility
10 SM
Flight Rules
VFR
Cloud Levels
  • Few at 6,000' AGL
Temperature
-11°C / 12°F
Dewpoint
-15°C / 5°F
Humidity
73%
Altimeter
30.15" Hg
Pressure
1029.4 hPa